Summerland, Canada
Current Conditions -  °F | °C
As of 9:00 AM on Thursday 27 Nov 2014 (Local Time) from CYYF Reporting Station
Scattered Clouds Scattered Clouds  
Wind Chill: 32°   Ceiling: Unl
Heat Index: 41°   Visibility: 15mi
Dew Point: 37°   Wind: 20mph
Humidity: 87%   Direction: 180°S
Pressure: 29.77"   Gusts: NA
Location:  49.6°N, 119.68°W
Report Text: CYYF 271700Z 18017KT 15SM SCT015 05/03 A2977 RMK SF3 SLP092
Loading
Personal Weather Stations






























Interactive Weather Map New forecast layout! Learn more

10-Day Weather Forecast

Advertisements
Track Severe Weather on mobile